sensor_id;sensor_type;location;lat;lon;timestamp;pressure;altitude;pressure_sealevel;temperature;humidity
74637;BME280;63141;54.616;39.754;2023-03-19T00:00:03;101524.97;;;22.76;31.99
74637;BME280;63141;54.616;39.754;2023-03-19T00:03:12;101519.66;;;22.76;31.78
74637;BME280;63141;54.616;39.754;2023-03-19T00:06:13;101517.00;;;22.76;31.89
74637;BME280;63141;54.616;39.754;2023-03-19T00:09:15;101515.28;;;22.75;31.99
74637;BME280;63141;54.616;39.754;2023-03-19T00:12:16;101509.06;;;22.74;31.89
74637;BME280;63141;54.616;39.754;2023-03-19T00:15:17;101517.94;;;22.75;31.99
74637;BME280;63141;54.616;39.754;2023-03-19T00:18:19;101507.31;;;22.75;31.96
74637;BME280;63141;54.616;39.754;2023-03-19T00:21:20;101509.97;;;22.75;31.99
74637;BME280;63141;54.616;39.754;2023-03-19T00:24:21;101517.03;;;22.74;32.03
74637;BME280;63141;54.616;39.754;2023-03-19T00:27:23;101507.34;;;22.73;31.99
74637;BME280;63141;54.616;39.754;2023-03-19T00:30:24;101510.84;;;22.74;32.04
74637;BME280;63141;54.616;39.754;2023-03-19T00:33:25;101502.88;;;22.74;32.17
74637;BME280;63141;54.616;39.754;2023-03-19T00:36:29;101505.53;;;22.74;32.14
74637;BME280;63141;54.616;39.754;2023-03-19T00:39:31;101497.56;;;22.74;32.16
74637;BME280;63141;54.616;39.754;2023-03-19T00:42:33;101498.50;;;22.73;32.24
74637;BME280;63141;54.616;39.754;2023-03-19T00:45:34;101490.53;;;22.73;32.18
74637;BME280;63141;54.616;39.754;2023-03-19T00:48:36;101490.53;;;22.73;31.99
74637;BME280;63141;54.616;39.754;2023-03-19T00:51:37;101487.88;;;22.73;32.25
74637;BME280;63141;54.616;39.754;2023-03-19T00:54:38;101489.66;;;22.72;32.26
74637;BME280;63141;54.616;39.754;2023-03-19T00:57:40;101491.41;;;22.72;32.24
74637;BME280;63141;54.616;39.754;2023-03-19T01:00:41;101486.09;;;22.72;32.08
74637;BME280;63141;54.616;39.754;2023-03-19T01:03:50;101487.88;;;22.73;32.10
74637;BME280;63141;54.616;39.754;2023-03-19T01:06:52;101484.34;;;22.72;32.26
74637;BME280;63141;54.616;39.754;2023-03-19T01:09:53;101485.25;;;22.71;32.26
74637;BME280;63141;54.616;39.754;2023-03-19T01:12:54;101484.38;;;22.71;32.25
74637;BME280;63141;54.616;39.754;2023-03-19T01:15:56;101473.75;;;22.71;32.31
74637;BME280;63141;54.616;39.754;2023-03-19T01:18:58;101479.94;;;22.71;32.21
74637;BME280;63141;54.616;39.754;2023-03-19T01:21:59;101473.75;;;22.71;32.26
74637;BME280;63141;54.616;39.754;2023-03-19T01:25:01;101479.06;;;22.71;32.22
74637;BME280;63141;54.616;39.754;2023-03-19T01:28:03;101477.28;;;22.70;32.40
74637;BME280;63141;54.616;39.754;2023-03-19T01:31:06;101475.53;;;22.70;32.32
74637;BME280;63141;54.616;39.754;2023-03-19T01:34:28;101473.75;;;22.71;32.32
74637;BME280;63141;54.616;39.754;2023-03-19T01:37:36;101471.97;;;22.70;32.31
74637;BME280;63141;54.616;39.754;2023-03-19T01:40:43;101477.28;;;22.70;32.25
74637;BME280;63141;54.616;39.754;2023-03-19T01:43:45;101464.94;;;22.69;32.34
74637;BME280;63141;54.616;39.754;2023-03-19T01:50:40;101459.63;;;22.69;32.42
74637;BME280;63141;54.616;39.754;2023-03-19T01:54:08;101456.97;;;22.69;32.40
74637;BME280;63141;54.616;39.754;2023-03-19T01:57:17;101456.97;;;22.69;32.27
74637;BME280;63141;54.616;39.754;2023-03-19T02:00:38;101457.88;;;22.68;32.32
74637;BME280;63141;54.616;39.754;2023-03-19T02:03:45;101468.50;;;22.68;32.32
74637;BME280;63141;54.616;39.754;2023-03-19T02:06:59;101464.09;;;22.67;32.46
74637;BME280;63141;54.616;39.754;2023-03-19T02:10:06;101464.97;;;22.67;32.38
74637;BME280;63141;54.616;39.754;2023-03-19T02:13:08;101456.13;;;22.67;32.28
74637;BME280;63141;54.616;39.754;2023-03-19T02:16:10;101453.47;;;22.67;32.42
74637;BME280;63141;54.616;39.754;2023-03-19T02:19:21;101453.47;;;22.67;32.47
74637;BME280;63141;54.616;39.754;2023-03-19T02:22:26;101453.47;;;22.67;32.50
74637;BME280;63141;54.616;39.754;2023-03-19T02:28:45;101457.91;;;22.66;32.30
74637;BME280;63141;54.616;39.754;2023-03-19T02:31:50;101457.88;;;22.68;32.29
74637;BME280;63141;54.616;39.754;2023-03-19T02:34:52;101461.44;;;22.67;32.37
74637;BME280;63141;54.616;39.754;2023-03-19T02:37:53;101456.13;;;22.67;32.30
74637;BME280;63141;54.616;39.754;2023-03-19T02:41:04;101452.56;;;22.68;32.36
74637;BME280;63141;54.616;39.754;2023-03-19T02:44:07;101459.66;;;22.67;32.46
74637;BME280;63141;54.616;39.754;2023-03-19T02:47:11;101463.19;;;22.68;32.46
74637;BME280;63141;54.616;39.754;2023-03-19T02:50:13;101466.66;;;22.70;32.46
74637;BME280;63141;54.616;39.754;2023-03-19T02:53:14;101462.25;;;22.70;32.53
74637;BME280;63141;54.616;39.754;2023-03-19T02:56:16;101464.00;;;22.71;32.60
74637;BME280;63141;54.616;39.754;2023-03-19T02:59:17;101459.53;;;22.72;32.57
74637;BME280;63141;54.616;39.754;2023-03-19T03:02:21;101457.81;;;22.71;32.40
74637;BME280;63141;54.616;39.754;2023-03-19T03:05:23;101458.69;;;22.71;32.41
74637;BME280;63141;54.616;39.754;2023-03-19T03:08:27;101453.38;;;22.71;32.58
74637;BME280;63141;54.616;39.754;2023-03-19T03:11:28;101451.63;;;22.70;32.52
74637;BME280;63141;54.616;39.754;2023-03-19T03:14:30;101446.34;;;22.69;32.54
74637;BME280;63141;54.616;39.754;2023-03-19T03:17:31;101445.44;;;22.70;32.49
74637;BME280;63141;54.616;39.754;2023-03-19T03:20:33;101447.25;;;22.68;32.52
74637;BME280;63141;54.616;39.754;2023-03-19T03:23:34;101444.59;;;22.68;32.38
74637;BME280;63141;54.616;39.754;2023-03-19T03:26:36;101438.47;;;22.66;32.37
74637;BME280;63141;54.616;39.754;2023-03-19T03:29:40;101437.53;;;22.67;32.27
74637;BME280;63141;54.616;39.754;2023-03-19T03:32:42;101433.16;;;22.66;32.34
74637;BME280;63141;54.616;39.754;2023-03-19T03:35:44;101435.81;;;22.66;32.32
74637;BME280;63141;54.616;39.754;2023-03-19T03:38:45;101432.25;;;22.65;32.35
74637;BME280;63141;54.616;39.754;2023-03-19T03:41:47;101427.00;;;22.64;32.41
74637;BME280;63141;54.616;39.754;2023-03-19T03:44:48;101430.50;;;22.64;32.27
74637;BME280;63141;54.616;39.754;2023-03-19T03:47:50;101419.03;;;22.64;32.27
74637;BME280;63141;54.616;39.754;2023-03-19T03:50:51;101427.00;;;22.62;32.45
74637;BME280;63141;54.616;39.754;2023-03-19T03:53:57;101421.69;;;22.62;32.16
74637;BME280;63141;54.616;39.754;2023-03-19T03:56:58;101425.22;;;22.63;32.05
74637;BME280;63141;54.616;39.754;2023-03-19T03:59:59;101420.84;;;22.62;32.12
74637;BME280;63141;54.616;39.754;2023-03-19T04:03:03;101418.19;;;22.62;32.22
74637;BME280;63141;54.616;39.754;2023-03-19T04:06:05;101420.84;;;22.62;32.18
74637;BME280;63141;54.616;39.754;2023-03-19T04:09:09;101412.84;;;22.63;32.25
74637;BME280;63141;54.616;39.754;2023-03-19T04:12:12;101411.06;;;22.62;32.34
74637;BME280;63141;54.616;39.754;2023-03-19T04:15:14;101409.28;;;22.63;32.36
74637;BME280;63141;54.616;39.754;2023-03-19T04:18:18;101409.34;;;22.61;32.28
74637;BME280;63141;54.616;39.754;2023-03-19T04:21:19;101399.59;;;22.62;32.24
74637;BME280;63141;54.616;39.754;2023-03-19T04:24:22;101399.59;;;22.62;32.29
74637;BME280;63141;54.616;39.754;2023-03-19T04:27:23;101406.69;;;22.61;32.18
74637;BME280;63141;54.616;39.754;2023-03-19T04:30:25;101399.59;;;22.62;32.28
74637;BME280;63141;54.616;39.754;2023-03-19T04:33:28;101394.28;;;22.62;32.23
74637;BME280;63141;54.616;39.754;2023-03-19T04:36:30;101392.50;;;22.61;32.23
74637;BME280;63141;54.616;39.754;2023-03-19T04:39:31;101386.34;;;22.60;32.25
74637;BME280;63141;54.616;39.754;2023-03-19T04:42:33;101392.50;;;22.61;32.23
74637;BME280;63141;54.616;39.754;2023-03-19T04:45:55;101378.41;;;22.58;32.18
74637;BME280;63141;54.616;39.754;2023-03-19T04:48:57;101380.16;;;22.59;32.18
74637;BME280;63141;54.616;39.754;2023-03-19T04:52:00;101375.72;;;22.60;32.21
74637;BME280;63141;54.616;39.754;2023-03-19T04:55:03;101373.09;;;22.58;32.16
74637;BME280;63141;54.616;39.754;2023-03-19T04:58:13;101383.72;;;22.58;32.29
74637;BME280;63141;54.616;39.754;2023-03-19T05:01:16;101381.09;;;22.57;32.19
74637;BME280;63141;54.616;39.754;2023-03-19T05:04:42;101379.31;;;22.57;32.27
74637;BME280;63141;54.616;39.754;2023-03-19T05:07:47;101380.25;;;22.56;32.20
74637;BME280;63141;54.616;39.754;2023-03-19T05:10:48;101375.78;;;22.57;32.03
74637;BME280;63141;54.616;39.754;2023-03-19T05:13:50;101366.97;;;22.56;31.99
74637;BME280;63141;54.616;39.754;2023-03-19T05:16:51;101369.63;;;22.56;32.32
74637;BME280;63141;54.616;39.754;2023-03-19T05:19:53;101369.63;;;22.56;32.16
74637;BME280;63141;54.616;39.754;2023-03-19T05:22:56;101362.53;;;22.55;32.17
74637;BME280;63141;54.616;39.754;2023-03-19T05:26:07;101359.03;;;22.55;31.99
74637;BME280;63141;54.616;39.754;2023-03-19T05:29:48;101358.09;;;22.56;31.98
74637;BME280;63141;54.616;39.754;2023-03-19T05:32:59;101356.38;;;22.55;32.07
74637;BME280;63141;54.616;39.754;2023-03-19T05:36:10;101355.50;;;22.54;32.00
74637;BME280;63141;54.616;39.754;2023-03-19T05:39:21;101345.84;;;22.50;31.62
74637;BME280;63141;54.616;39.754;2023-03-19T05:42:23;101339.78;;;22.45;30.54
74637;BME280;63141;54.616;39.754;2023-03-19T05:45:25;101338.16;;;22.38;29.86
74637;BME280;63141;54.616;39.754;2023-03-19T05:48:29;101343.63;;;22.30;29.45
74637;BME280;63141;54.616;39.754;2023-03-19T05:51:32;101346.44;;;22.24;28.98
74637;BME280;63141;54.616;39.754;2023-03-19T05:54:34;101343.84;;;22.20;28.49
74637;BME280;63141;54.616;39.754;2023-03-19T05:57:41;101338.66;;;22.13;28.28
74637;BME280;63141;54.616;39.754;2023-03-19T06:01:01;101331.03;;;21.96;26.85
74637;BME280;63141;54.616;39.754;2023-03-19T06:04:08;101327.84;;;21.81;26.10
74637;BME280;63141;54.616;39.754;2023-03-19T06:07:10;101330.53;;;21.79;26.49
74637;BME280;63141;54.616;39.754;2023-03-19T06:10:12;101333.19;;;21.78;26.06
74637;BME280;63141;54.616;39.754;2023-03-19T06:13:13;101335.91;;;21.74;25.79
74637;BME280;63141;54.616;39.754;2023-03-19T06:16:29;101337.72;;;21.72;26.04
74637;BME280;63141;54.616;39.754;2023-03-19T06:19:33;101332.41;;;21.72;25.52
74637;BME280;63141;54.616;39.754;2023-03-19T06:22:34;101335.94;;;21.73;25.43
74637;BME280;63141;54.616;39.754;2023-03-19T06:25:36;101336.88;;;21.70;25.70
74637;BME280;63141;54.616;39.754;2023-03-19T06:28:38;101332.47;;;21.69;26.07
74637;BME280;63141;54.616;39.754;2023-03-19T06:31:39;101320.97;;;21.70;26.22
74637;BME280;63141;54.616;39.754;2023-03-19T06:35:02;101317.38;;;21.71;26.47
74637;BME280;63141;54.616;39.754;2023-03-19T06:38:03;101317.38;;;21.73;26.66
74637;BME280;63141;54.616;39.754;2023-03-19T06:41:05;101314.63;;;21.78;26.97
74637;BME280;63141;54.616;39.754;2023-03-19T06:44:06;101312.72;;;21.84;27.37
74637;BME280;63141;54.616;39.754;2023-03-19T06:47:08;101309.97;;;21.89;27.48
74637;BME280;63141;54.616;39.754;2023-03-19T06:50:10;101301.03;;;21.94;27.86
74637;BME280;63141;54.616;39.754;2023-03-19T06:53:13;101299.19;;;21.98;27.75
74637;BME280;63141;54.616;39.754;2023-03-19T06:56:14;101300.88;;;22.01;27.84
74637;BME280;63141;54.616;39.754;2023-03-19T06:59:15;101299.09;;;22.03;27.89
74637;BME280;63141;54.616;39.754;2023-03-19T07:02:20;101305.22;;;22.06;28.03
74637;BME280;63141;54.616;39.754;2023-03-19T07:05:22;101297.19;;;22.08;28.13
74637;BME280;63141;54.616;39.754;2023-03-19T07:08:26;101306.00;;;22.10;28.18
74637;BME280;63141;54.616;39.754;2023-03-19T07:11:29;101289.13;;;22.12;28.22
74637;BME280;63141;54.616;39.754;2023-03-19T07:14:31;101280.28;;;22.13;28.27
74637;BME280;63141;54.616;39.754;2023-03-19T07:17:32;101288.16;;;22.16;28.51
74637;BME280;63141;54.616;39.754;2023-03-19T07:20:34;101282.88;;;22.16;28.64
74637;BME280;63141;54.616;39.754;2023-03-19T07:23:35;101285.47;;;22.20;28.71
74637;BME280;63141;54.616;39.754;2023-03-19T07:26:36;101295.16;;;22.21;28.89
74637;BME280;63141;54.616;39.754;2023-03-19T07:29:38;101299.56;;;22.22;28.88
74637;BME280;63141;54.616;39.754;2023-03-19T07:32:39;101287.16;;;22.24;28.94
74637;BME280;63141;54.616;39.754;2023-03-19T07:35:41;101288.00;;;22.26;29.14
74637;BME280;63141;54.616;39.754;2023-03-19T07:38:42;101287.06;;;22.28;29.32
74637;BME280;63141;54.616;39.754;2023-03-19T07:41:43;101284.38;;;22.30;29.36
74637;BME280;63141;54.616;39.754;2023-03-19T07:44:49;101285.22;;;22.32;29.74
74637;BME280;63141;54.616;39.754;2023-03-19T07:47:50;101284.28;;;22.34;30.22
74637;BME280;63141;54.616;39.754;2023-03-19T07:50:52;101282.47;;;22.35;30.26
74637;BME280;63141;54.616;39.754;2023-03-19T07:53:54;101277.03;;;22.41;31.09
74637;BME280;63141;54.616;39.754;2023-03-19T07:56:55;101276.06;;;22.45;30.50
74637;BME280;63141;54.616;39.754;2023-03-19T07:59:57;101266.34;;;22.44;30.27
74637;BME280;63141;54.616;39.754;2023-03-19T08:03:01;101260.13;;;22.45;30.00
74637;BME280;63141;54.616;39.754;2023-03-19T08:06:02;101258.31;;;22.47;30.06
74637;BME280;63141;54.616;39.754;2023-03-19T08:09:07;101261.78;;;22.49;29.91
74637;BME280;63141;54.616;39.754;2023-03-19T08:12:09;101255.59;;;22.50;29.79
74637;BME280;63141;54.616;39.754;2023-03-19T08:15:11;101259.97;;;22.51;29.77
74637;BME280;63141;54.616;39.754;2023-03-19T08:18:12;101253.78;;;22.52;29.57
74637;BME280;63141;54.616;39.754;2023-03-19T08:21:14;101247.53;;;22.53;29.58
74637;BME280;63141;54.616;39.754;2023-03-19T08:24:15;101239.56;;;22.53;29.51
74637;BME280;63141;54.616;39.754;2023-03-19T08:27:17;101243.09;;;22.54;29.58
74637;BME280;63141;54.616;39.754;2023-03-19T08:30:19;101222.75;;;22.54;29.58
74637;BME280;63141;54.616;39.754;2023-03-19T08:33:21;101224.47;;;22.55;29.75
74637;BME280;63141;54.616;39.754;2023-03-19T08:36:22;101226.25;;;22.56;29.70
74637;BME280;63141;54.616;39.754;2023-03-19T08:39:23;101227.09;;;22.57;29.56
74637;BME280;63141;54.616;39.754;2023-03-19T08:42:25;101223.53;;;22.58;29.76
74637;BME280;63141;54.616;39.754;2023-03-19T08:45:26;101222.56;;;22.61;29.87
74637;BME280;63141;54.616;39.754;2023-03-19T08:48:28;101223.47;;;22.61;30.02
74637;BME280;63141;54.616;39.754;2023-03-19T08:51:29;101216.38;;;22.62;29.95
74637;BME280;63141;54.616;39.754;2023-03-19T08:54:31;101221.69;;;22.62;29.98
74637;BME280;63141;54.616;39.754;2023-03-19T08:57:33;101227.00;;;22.62;29.97
74637;BME280;63141;54.616;39.754;2023-03-19T09:00:34;101223.41;;;22.63;30.13
74637;BME280;63141;54.616;39.754;2023-03-19T09:03:42;101213.63;;;22.65;30.15
74637;BME280;63141;54.616;39.754;2023-03-19T09:06:45;101218.94;;;22.65;30.26
74637;BME280;63141;54.616;39.754;2023-03-19T09:09:47;101219.81;;;22.65;30.23
74637;BME280;63141;54.616;39.754;2023-03-19T09:12:48;101207.44;;;22.66;30.33
74637;BME280;63141;54.616;39.754;2023-03-19T09:15:49;101217.13;;;22.67;30.28
74637;BME280;63141;54.616;39.754;2023-03-19T09:18:51;101217.97;;;22.67;30.43
74637;BME280;63141;54.616;39.754;2023-03-19T09:21:52;101209.13;;;22.68;30.44
74637;BME280;63141;54.616;39.754;2023-03-19T09:24:54;101202.94;;;22.68;30.45
74637;BME280;63141;54.616;39.754;2023-03-19T09:27:55;101194.06;;;22.69;30.60
74637;BME280;63141;54.616;39.754;2023-03-19T09:30:56;101204.69;;;22.69;30.61
74637;BME280;63141;54.616;39.754;2023-03-19T09:33:58;101208.16;;;22.71;30.54
74637;BME280;63141;54.616;39.754;2023-03-19T09:36:59;101199.34;;;22.70;30.71
74637;BME280;63141;54.616;39.754;2023-03-19T09:40:00;101201.09;;;22.70;30.72
74637;BME280;63141;54.616;39.754;2023-03-19T09:43:11;101199.28;;;22.72;30.78
74637;BME280;63141;54.616;39.754;2023-03-19T09:46:18;101198.41;;;22.71;30.75
74637;BME280;63141;54.616;39.754;2023-03-19T09:49:29;101188.66;;;22.72;30.98
74637;BME280;63141;54.616;39.754;2023-03-19T09:55:49;101172.72;;;22.72;30.91
74637;BME280;63141;54.616;39.754;2023-03-19T09:58:51;101174.47;;;22.73;30.97
74637;BME280;63141;54.616;39.754;2023-03-19T10:15:15;101177.13;;;22.73;31.07
74637;BME280;63141;54.616;39.754;2023-03-19T10:18:27;101174.47;;;22.73;31.03
74637;BME280;63141;54.616;39.754;2023-03-19T10:21:45;101163.78;;;22.74;31.15
74637;BME280;63141;54.616;39.754;2023-03-19T10:24:53;101162.94;;;22.74;31.20
74637;BME280;63141;54.616;39.754;2023-03-19T10:28:09;101159.38;;;22.75;31.05
74637;BME280;63141;54.616;39.754;2023-03-19T10:34:31;101151.41;;;22.75;31.23
74637;BME280;63141;54.616;39.754;2023-03-19T10:37:37;101154.97;;;22.74;31.24
74637;BME280;63141;54.616;39.754;2023-03-19T10:40:47;101154.94;;;22.75;31.25
74637;BME280;63141;54.616;39.754;2023-03-19T10:44:01;101142.56;;;22.74;31.24
74637;BME280;63141;54.616;39.754;2023-03-19T10:47:12;101129.28;;;22.74;31.27
74637;BME280;63141;54.616;39.754;2023-03-19T10:50:27;101123.09;;;22.74;31.11
74637;BME280;63141;54.616;39.754;2023-03-19T10:53:37;101116.94;;;22.73;31.33
74637;BME280;63141;54.616;39.754;2023-03-19T10:56:45;101120.44;;;22.74;31.36
74637;BME280;63141;54.616;39.754;2023-03-19T10:59:46;101121.38;;;22.73;31.39
74637;BME280;63141;54.616;39.754;2023-03-19T11:02:52;101116.06;;;22.73;31.25
74637;BME280;63141;54.616;39.754;2023-03-19T11:12:34;101114.31;;;22.72;30.85
74637;BME280;63141;54.616;39.754;2023-03-19T11:15:37;101108.13;;;22.71;30.94
74637;BME280;63141;54.616;39.754;2023-03-19T11:18:39;101108.97;;;22.72;30.76
74637;BME280;63141;54.616;39.754;2023-03-19T11:21:41;101101.03;;;22.72;30.68
74637;BME280;63141;54.616;39.754;2023-03-19T11:31:14;101097.41;;;22.74;30.65
74637;BME280;63141;54.616;39.754;2023-03-19T11:34:30;101099.16;;;22.75;30.38
74637;BME280;63141;54.616;39.754;2023-03-19T11:37:58;101103.63;;;22.75;30.53
74637;BME280;63141;54.616;39.754;2023-03-19T11:44:51;101097.47;;;22.73;30.25
74637;BME280;63141;54.616;39.754;2023-03-19T11:47:58;101097.50;;;22.71;30.24
74637;BME280;63141;54.616;39.754;2023-03-19T12:05:18;101096.72;;;22.68;29.47
74637;BME280;63141;54.616;39.754;2023-03-19T12:08:30;101092.31;;;22.67;29.35
74637;BME280;63141;54.616;39.754;2023-03-19T12:11:43;101089.66;;;22.67;29.23
74637;BME280;63141;54.616;39.754;2023-03-19T12:25:51;101066.75;;;22.63;28.90
74637;BME280;63141;54.616;39.754;2023-03-19T12:29:38;101065.84;;;22.64;28.87
74637;BME280;63141;54.616;39.754;2023-03-19T12:36:02;101046.44;;;22.62;28.55
74637;BME280;63141;54.616;39.754;2023-03-19T12:39:10;101049.09;;;22.62;28.49
74637;BME280;63141;54.616;39.754;2023-03-19T12:42:15;101037.59;;;22.61;28.56
74637;BME280;63141;54.616;39.754;2023-03-19T12:45:38;101026.09;;;22.61;28.41
74637;BME280;63141;54.616;39.754;2023-03-19T12:55:46;101027.91;;;22.58;27.96
74637;BME280;63141;54.616;39.754;2023-03-19T12:58:58;101026.19;;;22.57;27.82
74637;BME280;63141;54.616;39.754;2023-03-19T13:02:19;101026.19;;;22.57;27.87
74637;BME280;63141;54.616;39.754;2023-03-19T13:11:47;101017.28;;;22.58;27.87
74637;BME280;63141;54.616;39.754;2023-03-19T13:15:13;101010.25;;;22.57;27.92
74637;BME280;63141;54.616;39.754;2023-03-19T13:18:50;100998.78;;;22.57;27.95
74637;BME280;63141;54.616;39.754;2023-03-19T13:22:02;100988.16;;;22.57;27.84
74637;BME280;63141;54.616;39.754;2023-03-19T13:25:05;100983.72;;;22.57;27.76
74637;BME280;63141;54.616;39.754;2023-03-19T13:28:31;100983.72;;;22.57;27.83
74637;BME280;63141;54.616;39.754;2023-03-19T13:31:34;100977.53;;;22.57;27.89
74637;BME280;63141;54.616;39.754;2023-03-19T13:34:37;100977.53;;;22.57;27.79
74637;BME280;63141;54.616;39.754;2023-03-19T13:37:42;100977.53;;;22.57;27.65
74637;BME280;63141;54.616;39.754;2023-03-19T13:40:51;100971.38;;;22.56;27.68
74637;BME280;63141;54.616;39.754;2023-03-19T13:43:54;100965.16;;;22.56;27.71
74637;BME280;63141;54.616;39.754;2023-03-19T13:46:56;100963.41;;;22.56;27.66
74637;BME280;63141;54.616;39.754;2023-03-19T13:53:52;100960.75;;;22.56;27.58
74637;BME280;63141;54.616;39.754;2023-03-19T13:57:03;100949.22;;;22.56;27.58
74637;BME280;63141;54.616;39.754;2023-03-19T14:03:59;100941.34;;;22.54;27.53
74637;BME280;63141;54.616;39.754;2023-03-19T14:07:26;100943.06;;;22.55;27.49
74637;BME280;63141;54.616;39.754;2023-03-19T14:10:30;100936.91;;;22.53;27.51
74637;BME280;63141;54.616;39.754;2023-03-19T14:13:42;100936.03;;;22.54;27.19
74637;BME280;63141;54.616;39.754;2023-03-19T14:16:50;100923.66;;;22.53;27.30
74637;BME280;63141;54.616;39.754;2023-03-19T14:19:53;100926.28;;;22.53;27.47
74637;BME280;63141;54.616;39.754;2023-03-19T14:26:16;100925.41;;;22.54;27.38
74637;BME280;63141;54.616;39.754;2023-03-19T14:29:18;100919.19;;;22.54;27.44
74637;BME280;63141;54.616;39.754;2023-03-19T14:32:33;100931.56;;;22.55;27.10
74637;BME280;63141;54.616;39.754;2023-03-19T14:35:40;100929.81;;;22.54;27.04
74637;BME280;63141;54.616;39.754;2023-03-19T14:38:54;100933.38;;;22.54;27.18
74637;BME280;63141;54.616;39.754;2023-03-19T14:42:16;100917.56;;;22.50;27.10
74637;BME280;63141;54.616;39.754;2023-03-19T14:52:08;100918.97;;;22.32;26.27
74637;BME280;63141;54.616;39.754;2023-03-19T14:55:14;100921.78;;;22.26;25.80
74637;BME280;63141;54.616;39.754;2023-03-19T14:58:18;100928.16;;;22.18;25.81
74637;BME280;63141;54.616;39.754;2023-03-19T15:01:22;100930.00;;;22.15;25.76
74637;BME280;63141;54.616;39.754;2023-03-19T15:04:31;100925.72;;;22.11;25.61
74637;BME280;63141;54.616;39.754;2023-03-19T15:07:36;100923.09;;;22.09;25.67
74637;BME280;63141;54.616;39.754;2023-03-19T15:17:29;100913.56;;;22.02;25.82
74637;BME280;63141;54.616;39.754;2023-03-19T15:20:45;100910.94;;;22.01;25.74
74637;BME280;63141;54.616;39.754;2023-03-19T15:23:48;100911.91;;;21.98;25.69
74637;BME280;63141;54.616;39.754;2023-03-19T15:26:49;100916.31;;;21.99;26.19
74637;BME280;63141;54.616;39.754;2023-03-19T15:29:52;100912.66;;;22.03;26.62
74637;BME280;63141;54.616;39.754;2023-03-19T15:32:54;100913.41;;;22.08;26.52
74637;BME280;63141;54.616;39.754;2023-03-19T15:35:59;100917.69;;;22.12;26.71
74637;BME280;63141;54.616;39.754;2023-03-19T15:39:04;100911.41;;;22.16;26.71
74637;BME280;63141;54.616;39.754;2023-03-19T15:42:07;100908.69;;;22.20;26.67
74637;BME280;63141;54.616;39.754;2023-03-19T15:45:11;100908.59;;;22.24;27.06
74637;BME280;63141;54.616;39.754;2023-03-19T15:48:20;100903.16;;;22.29;27.09
74637;BME280;63141;54.616;39.754;2023-03-19T15:51:24;100911.91;;;22.31;27.15
74637;BME280;63141;54.616;39.754;2023-03-19T15:54:26;100903.03;;;22.32;27.12
74637;BME280;63141;54.616;39.754;2023-03-19T15:57:28;100904.75;;;22.34;27.36
74637;BME280;63141;54.616;39.754;2023-03-19T16:00:38;100892.31;;;22.35;27.32
74637;BME280;63141;54.616;39.754;2023-03-19T16:03:43;100894.94;;;22.36;27.57
74637;BME280;63141;54.616;39.754;2023-03-19T16:06:48;100892.25;;;22.38;27.52
74637;BME280;63141;54.616;39.754;2023-03-19T16:09:50;100894.00;;;22.39;27.87
74637;BME280;63141;54.616;39.754;2023-03-19T16:12:53;100884.22;;;22.40;27.95
74637;BME280;63141;54.616;39.754;2023-03-19T16:16:00;100889.50;;;22.41;27.96
74637;BME280;63141;54.616;39.754;2023-03-19T16:19:02;100886.84;;;22.41;28.05
74637;BME280;63141;54.616;39.754;2023-03-19T16:22:15;100891.19;;;22.44;28.09
74637;BME280;63141;54.616;39.754;2023-03-19T16:25:19;100884.16;;;22.43;28.16
74637;BME280;63141;54.616;39.754;2023-03-19T16:28:21;100890.34;;;22.43;28.34
74637;BME280;63141;54.616;39.754;2023-03-19T16:31:28;100888.50;;;22.45;28.44
74637;BME280;63141;54.616;39.754;2023-03-19T16:34:47;100877.88;;;22.45;28.47
74637;BME280;63141;54.616;39.754;2023-03-19T16:37:52;100892.00;;;22.47;28.67
74637;BME280;63141;54.616;39.754;2023-03-19T16:44:26;100887.47;;;22.49;28.75
74637;BME280;63141;54.616;39.754;2023-03-19T16:47:28;100893.75;;;22.47;28.91
74637;BME280;63141;54.616;39.754;2023-03-19T16:50:36;100886.63;;;22.49;28.92
74637;BME280;63141;54.616;39.754;2023-03-19T16:53:38;100883.97;;;22.49;29.13
74637;BME280;63141;54.616;39.754;2023-03-19T16:56:40;100887.44;;;22.51;28.95
74637;BME280;63141;54.616;39.754;2023-03-19T16:59:41;100888.31;;;22.51;29.47
74637;BME280;63141;54.616;39.754;2023-03-19T17:02:43;100886.47;;;22.53;29.13
74637;BME280;63141;54.616;39.754;2023-03-19T17:05:50;100882.94;;;22.54;29.25
74637;BME280;63141;54.616;39.754;2023-03-19T17:08:52;100876.72;;;22.54;29.32
74637;BME280;63141;54.616;39.754;2023-03-19T17:11:53;100874.03;;;22.55;29.52
74637;BME280;63141;54.616;39.754;2023-03-19T17:14:55;100875.78;;;22.56;29.67
74637;BME280;63141;54.616;39.754;2023-03-19T17:17:57;100878.44;;;22.56;29.82
74637;BME280;63141;54.616;39.754;2023-03-19T17:21:09;100873.13;;;22.56;29.75
74637;BME280;63141;54.616;39.754;2023-03-19T17:27:24;100871.38;;;22.55;29.86
74637;BME280;63141;54.616;39.754;2023-03-19T17:30:27;100863.41;;;22.55;29.89
74637;BME280;63141;54.616;39.754;2023-03-19T17:33:29;100868.72;;;22.55;29.78
74637;BME280;63141;54.616;39.754;2023-03-19T17:36:31;100863.41;;;22.55;29.90
74637;BME280;63141;54.616;39.754;2023-03-19T17:39:32;100868.72;;;22.55;30.00
74637;BME280;63141;54.616;39.754;2023-03-19T17:42:34;100863.41;;;22.55;29.95
74637;BME280;63141;54.616;39.754;2023-03-19T17:45:36;100858.09;;;22.55;30.00
74637;BME280;63141;54.616;39.754;2023-03-19T17:48:39;100863.41;;;22.55;29.97
74637;BME280;63141;54.616;39.754;2023-03-19T17:51:40;100859.03;;;22.54;30.04